Time;durP1;ratioP1;P1;durP2;ratioP2;P2;SDS_P1;SDS_P2;PMS_P1;PMS_P2;Temp;Humidity;BMP_temperature;BMP_pressure;BME280_temperature;BME280_humidity;BME280_pressure;Samples;Min_cycle;Max_cycle;Signal;HPM_P1;HPM_P2
2022/08/18 00:02:03;;;;;;;0.10;0.10;;;;;;;24.74;54.42;100878.22;5145373;27;20225;-35
2022/08/18 00:04:31;;;;;;;0.10;0.10;;;;;;;24.73;54.43;100877.41;5127440;27;20058;-34
2022/08/18 00:07:17;;;;;;;0.10;0.10;;;;;;;24.73;54.54;100876.59;5145197;27;20047;-35
2022/08/18 00:09:42;;;;;;;0.10;0.10;;;;;;;24.74;54.52;100878.22;5127430;27;20081;-34
2022/08/18 00:12:14;;;;;;;0.15;0.15;;;;;;;24.74;54.42;100884.63;5127675;27;20118;-34
2022/08/18 00:14:40;;;;;;;0.10;0.10;;;;;;;24.73;54.51;100888.53;5127285;27;20116;-34
2022/08/18 00:17:05;;;;;;;0.10;0.10;;;;;;;24.74;54.50;100881.00;5144063;27;20046;-34
2022/08/18 00:19:31;;;;;;;0.10;0.10;;;;;;;24.74;54.46;100894.94;5132846;28;20039;-34
2022/08/18 00:22:15;;;;;;;0.10;0.10;;;;;;;24.73;54.38;100896.06;5133021;28;20484;-35
2022/08/18 00:24:43;;;;;;;0.10;0.10;;;;;;;24.73;54.58;100898.84;5111368;28;20096;-35
2022/08/18 00:27:16;;;;;;;0.10;0.10;;;;;;;24.73;54.47;100910.81;5130911;28;20047;-34
2022/08/18 00:29:41;;;;;;;0.10;0.10;;;;;;;24.73;54.45;100901.66;5130495;28;20478;-34
2022/08/18 00:32:12;;;;;;;0.10;0.10;;;;;;;24.72;54.37;100906.41;5132236;28;20053;-34
2022/08/18 00:34:38;;;;;;;0.10;0.10;;;;;;;24.73;54.44;100898.84;5131847;28;20146;-34
2022/08/18 00:37:04;;;;;;;0.10;0.10;;;;;;;24.73;54.41;100899.69;5132161;28;20160;-35
2022/08/18 00:39:32;;;;;;;0.10;0.10;;;;;;;24.72;54.45;100897.22;5131225;28;20457;-35
2022/08/18 00:42:21;;;;;;;0.10;0.10;;;;;;;24.72;54.51;100900.81;5131432;28;20047;-35
2022/08/18 00:45:00;;;;;;;0.10;0.10;;;;;;;24.72;54.40;100900.81;5111036;28;20051;-35
2022/08/18 00:47:28;;;;;;;0.10;0.10;;;;;;;24.72;54.39;100897.22;5111446;28;20130;-34
2022/08/18 00:50:11;;;;;;;0.10;0.10;;;;;;;24.72;54.51;100889.69;5116975;28;20039;-34
2022/08/18 00:52:43;;;;;;;0.10;0.10;;;;;;;24.72;54.33;100900.00;5132165;28;20477;-34
2022/08/18 00:55:09;;;;;;;0.10;0.10;;;;;;;24.72;54.44;100898.03;5131771;28;20201;-34
2022/08/18 00:57:35;;;;;;;0.10;0.10;;;;;;;24.72;54.45;100897.22;5131561;28;20536;-34
2022/08/18 01:00:11;;;;;;;0.10;0.10;;;;;;;24.71;54.47;100888.06;5113947;28;20130;-35
2022/08/18 01:02:42;;;;;;;0.20;0.20;;;;;;;24.72;54.37;100891.66;5113859;28;20138;-36
2022/08/18 01:05:14;;;;;;;0.10;0.10;;;;;;;24.71;54.37;100887.22;5131724;28;20132;-34
2022/08/18 01:07:44;;;;;;;0.10;0.10;;;;;;;24.71;54.36;100885.25;5111289;28;20081;-34
2022/08/18 01:10:15;;;;;;;0.10;0.10;;;;;;;24.72;54.43;100894.44;5112563;28;20043;-34
2022/08/18 01:12:43;;;;;;;0.10;0.10;;;;;;;24.71;54.46;100896.41;5130319;28;20098;-35
2022/08/18 01:15:13;;;;;;;0.10;0.10;;;;;;;24.72;54.42;100888.88;5132074;28;20047;-34
2022/08/18 01:23:37;;;;;;;0.08;0.08;;;;;;;24.70;54.51;100882.81;5116268;27;20082;-35
2022/08/18 01:26:03;;;;;;;0.10;0.10;;;;;;;24.70;54.43;100877.25;5130634;28;20047;-35
2022/08/18 01:28:31;;;;;;;0.10;0.10;;;;;;;24.70;54.40;100878.06;5130392;28;20485;-35
2022/08/18 01:30:58;;;;;;;0.10;0.10;;;;;;;24.70;54.46;100883.63;5111994;28;20039;-34
2022/08/18 01:33:26;;;;;;;0.10;0.10;;;;;;;24.69;54.55;100876.38;5130583;28;20081;-35
2022/08/18 01:35:56;;;;;;;0.10;0.10;;;;;;;24.70;54.31;100874.47;5100408;28;20122;-34
2022/08/18 01:38:21;;;;;;;0.10;0.10;;;;;;;24.69;54.38;100881.97;5129634;28;20074;-35
2022/08/18 01:40:47;;;;;;;0.10;0.10;;;;;;;24.70;54.47;100889.19;5128558;28;20053;-35
2022/08/18 01:43:34;;;;;;;0.10;0.10;;;;;;;24.69;54.41;100895.88;5112844;28;20051;-34
2022/08/18 01:46:02;;;;;;;0.10;0.10;;;;;;;24.69;54.47;100907.03;5128301;28;20158;-34
2022/08/18 01:48:32;;;;;;;0.10;0.10;;;;;;;24.69;54.51;100897.84;5113917;28;20496;-34
2022/08/18 01:50:59;;;;;;;0.10;0.10;;;;;;;24.69;54.35;100909.00;5112697;28;20496;-34
2022/08/18 01:53:26;;;;;;;0.10;0.10;;;;;;;24.69;54.43;100912.59;5130519;28;20497;-34
2022/08/18 01:55:52;;;;;;;0.10;0.10;;;;;;;24.69;54.42;100911.78;5129781;28;20078;-35
2022/08/18 01:58:17;;;;;;;0.10;0.10;;;;;;;24.69;54.47;100917.34;5130794;28;20039;-35
2022/08/18 02:00:43;;;;;;;0.10;0.10;;;;;;;24.68;54.36;100916.53;5130832;28;20054;-34
2022/08/18 02:03:11;;;;;;;0.10;0.10;;;;;;;24.70;54.41;100907.88;5131463;28;20051;-34
2022/08/18 02:05:42;;;;;;;0.10;0.10;;;;;;;24.69;54.34;100911.78;5112258;28;20074;-34
2022/08/18 02:08:08;;;;;;;0.10;0.10;;;;;;;24.69;54.40;100923.72;5095188;28;20434;-36
2022/08/18 02:10:34;;;;;;;0.10;0.10;;;;;;;24.68;54.41;100924.88;5131804;28;20396;-34
2022/08/18 02:13:00;;;;;;;0.10;0.10;;;;;;;24.68;54.38;100919.31;5129505;28;20062;-34
2022/08/18 02:15:27;;;;;;;0.10;0.10;;;;;;;24.68;54.46;100918.50;5129074;28;20043;-34
2022/08/18 02:17:52;;;;;;;0.10;0.10;;;;;;;24.67;54.31;100917.69;5129640;28;20491;-34
2022/08/18 02:20:19;;;;;;;0.10;0.10;;;;;;;24.67;54.34;100917.69;5131493;28;20043;-34
2022/08/18 02:22:47;;;;;;;0.10;0.10;;;;;;;24.68;54.38;100921.28;5112170;28;20474;-34
2022/08/18 02:25:14;;;;;;;0.10;0.10;;;;;;;24.68;54.41;100918.50;5095505;28;20610;-35
2022/08/18 02:27:39;;;;;;;0.10;0.10;;;;;;;24.68;54.44;100901.78;5111754;28;20220;-34
2022/08/18 02:30:08;;;;;;;0.10;0.10;;;;;;;24.67;54.41;100894.56;5130326;28;20496;-34
2022/08/18 02:32:34;;;;;;;0.10;0.10;;;;;;;24.66;54.40;100882.63;5111155;28;20082;-34
2022/08/18 02:35:00;;;;;;;0.10;0.10;;;;;;;24.67;54.32;100880.66;5130572;28;20043;-34
2022/08/18 02:37:25;;;;;;;0.10;0.10;;;;;;;24.67;54.51;100881.47;5129586;28;20085;-34
2022/08/18 02:39:51;;;;;;;0.10;0.10;;;;;;;24.67;54.38;100875.09;5130108;28;20047;-34
2022/08/18 02:42:17;;;;;;;0.10;0.10;;;;;;;24.67;54.43;100872.31;5129711;27;20054;-35
2022/08/18 02:44:43;;;;;;;0.00;0.00;;;;;;;24.66;54.33;100877.06;5109006;28;20039;-34
2022/08/18 02:47:09;;;;;;;0.10;0.10;;;;;;;24.67;54.44;100877.88;5110519;28;20051;-34
2022/08/18 02:49:36;;;;;;;0.10;0.10;;;;;;;24.67;54.31;100880.66;5111154;28;20104;-35
2022/08/18 02:52:02;;;;;;;0.10;0.10;;;;;;;24.66;54.44;100882.63;5131634;28;20168;-34
2022/08/18 02:54:28;;;;;;;0.10;0.10;;;;;;;24.68;54.39;100885.06;5129980;28;20082;-34
2022/08/18 02:56:55;;;;;;;0.10;0.10;;;;;;;24.65;54.44;100880.97;5130090;28;20049;-34
2022/08/18 02:59:23;;;;;;;0.00;0.00;;;;;;;24.67;54.35;100872.31;5128837;28;20074;-35
2022/08/18 03:01:51;;;;;;;0.00;0.00;;;;;;;24.66;54.41;100874.28;5096440;28;20081;-34
2022/08/18 03:04:20;;;;;;;0.10;0.10;;;;;;;24.66;54.41;100873.44;5128878;28;20067;-35
2022/08/18 03:06:50;;;;;;;0.10;0.10;;;;;;;24.66;54.35;100876.22;5106608;28;20048;-34
2022/08/18 03:09:16;;;;;;;0.17;0.17;;;;;;;24.66;54.42;100870.66;5127770;28;20055;-34
2022/08/18 03:11:42;;;;;;;0.10;0.10;;;;;;;24.66;54.33;100867.88;5127117;28;20134;-35
2022/08/18 03:14:09;;;;;;;0.10;0.10;;;;;;;24.66;54.42;100859.53;5129293;28;20095;-34
2022/08/18 03:16:38;;;;;;;;;;;;;;;24.66;54.50;100870.66;5128611;28;20131;-34
2022/08/18 03:19:03;;;;;;;0.10;0.10;;;;;;;24.65;54.45;100871.78;5129738;28;20001;-35
2022/08/18 03:21:30;;;;;;;0.20;0.20;;;;;;;24.65;54.39;100869.81;5112530;28;20062;-36
2022/08/18 03:23:56;;;;;;;0.10;0.10;;;;;;;24.66;54.36;100874.28;5110945;28;20076;-35
2022/08/18 03:26:28;;;;;;;0.00;0.00;;;;;;;24.64;54.41;100873.75;5111807;28;20036;-34
2022/08/18 03:28:54;;;;;;;0.10;0.10;;;;;;;24.65;54.45;100874.56;5110733;28;20445;-37
2022/08/18 03:31:22;;;;;;;0.10;0.10;;;;;;;24.65;54.45;100880.13;5111436;28;20067;-34
2022/08/18 03:33:50;;;;;;;0.10;0.10;;;;;;;24.65;54.30;100877.34;5111001;28;20079;-35
2022/08/18 03:36:19;;;;;;;0.10;0.10;;;;;;;24.65;54.42;100877.34;5128948;28;20514;-35
2022/08/18 03:38:45;;;;;;;0.10;0.10;;;;;;;24.64;54.43;100870.97;5129363;28;20074;-34
2022/08/18 03:41:18;;;;;;;0.10;0.10;;;;;;;24.65;54.37;100880.97;5112665;28;20062;-35
2022/08/18 03:44:05;;;;;;;0.10;0.10;;;;;;;24.64;54.41;100876.53;5099385;28;20047;-35
2022/08/18 03:46:31;;;;;;;0.30;0.30;;;;;;;24.64;54.42;100881.28;5127878;28;20188;-34
2022/08/18 03:48:58;;;;;;;0.10;0.10;;;;;;;24.64;54.28;100881.28;5110783;28;20047;-34
2022/08/18 03:51:26;;;;;;;0.10;0.10;;;;;;;24.64;54.33;100876.53;5092753;28;20131;-36
2022/08/18 03:53:53;;;;;;;0.10;0.10;;;;;;;24.64;54.29;100886.84;5131484;27;20062;-35
2022/08/18 03:56:22;;;;;;;0.10;0.10;;;;;;;24.63;54.22;100888.81;5096223;28;20196;-34
2022/08/18 03:58:52;;;;;;;0.10;0.10;;;;;;;24.64;54.34;100881.28;5115289;28;20074;-34
2022/08/18 04:01:19;;;;;;;0.10;0.10;;;;;;;24.63;54.28;100880.47;5114545;28;20069;-34
2022/08/18 04:03:55;;;;;;;0.10;0.10;;;;;;;24.63;54.32;100886.03;5133264;28;20051;-35
2022/08/18 04:06:23;;;;;;;0.10;0.10;;;;;;;24.64;54.38;100881.28;5132592;28;20180;-34
2022/08/18 04:08:58;;;;;;;0.10;0.10;;;;;;;24.63;54.31;100883.25;5115199;28;20053;-34
2022/08/18 04:11:24;;;;;;;0.10;0.10;;;;;;;24.63;54.32;100879.66;5132564;28;20512;-35
2022/08/18 04:13:50;;;;;;;0.10;0.10;;;;;;;24.63;54.31;100880.47;5131964;28;20042;-35
2022/08/18 04:16:16;;;;;;;0.10;0.10;;;;;;;24.63;54.46;100872.13;5113085;28;20130;-35
2022/08/18 04:18:41;;;;;;;0.20;0.20;;;;;;;24.63;54.31;100876.88;5112777;28;20407;-34
2022/08/18 04:21:09;;;;;;;0.10;0.10;;;;;;;24.63;54.47;100880.47;5133573;28;20046;-35
2022/08/18 04:23:36;;;;;;;0.10;0.10;;;;;;;24.63;54.40;100888.00;5130056;27;20130;-35
2022/08/18 04:26:11;;;;;;;0.10;0.10;;;;;;;24.62;54.33;100889.97;5131526;28;20051;-34
2022/08/18 04:28:45;;;;;;;0.10;0.10;;;;;;;24.62;54.42;100892.75;5132352;28;20065;-34
2022/08/18 04:31:12;;;;;;;0.10;0.10;;;;;;;24.63;54.36;100885.22;5112929;28;20035;-35
2022/08/18 04:33:38;;;;;;;0.10;0.10;;;;;;;24.63;54.32;100888.00;5131613;28;20066;-34
2022/08/18 04:36:13;;;;;;;0.10;0.10;;;;;;;24.64;54.32;100886.84;5131986;28;20046;-34
2022/08/18 04:38:46;;;;;;;0.10;0.10;;;;;;;24.62;54.32;100884.41;5113377;28;20047;-35
2022/08/18 04:41:12;;;;;;;0.10;0.10;;;;;;;24.63;54.40;100883.25;5132118;28;20055;-34
2022/08/18 04:43:38;;;;;;;0.10;0.10;;;;;;;24.64;54.30;100890.47;5130122;28;20130;-35
2022/08/18 04:46:05;;;;;;;0.10;0.10;;;;;;;24.63;54.28;100885.22;5094698;28;20130;-34
2022/08/18 04:48:33;;;;;;;0.10;0.10;;;;;;;24.62;54.39;100884.41;5132355;28;20135;-34
2022/08/18 04:51:07;;;;;;;0.10;0.10;;;;;;;24.64;54.46;100881.28;5107201;28;20127;-34
2022/08/18 04:53:48;;;;;;;0.10;0.10;;;;;;;24.63;54.68;100886.03;5131434;28;20067;-34
2022/08/18 04:56:31;;;;;;;0.10;0.10;;;;;;;24.62;54.33;100889.97;5108232;28;20047;-34
2022/08/18 04:58:59;;;;;;;0.10;0.10;;;;;;;24.63;54.36;100896.34;5129180;28;20138;-34
2022/08/18 05:01:26;;;;;;;;;;;;;;;24.63;54.99;100905.53;5113258;28;20134;-34
2022/08/18 05:03:53;;;;;;;0.10;0.10;;;;;;;24.63;55.03;100901.91;5131840;27;19927;-34
2022/08/18 05:06:24;;;;;;;0.10;0.10;;;;;;;24.63;54.92;100908.31;5128711;28;20130;-35
2022/08/18 05:08:52;;;;;;;0.10;0.10;;;;;;;24.63;54.69;100910.28;5108171;28;20622;-35
2022/08/18 05:11:17;;;;;;;0.10;0.10;;;;;;;24.61;54.30;100907.81;5127950;28;20126;-35
2022/08/18 05:13:43;;;;;;;0.10;0.10;;;;;;;24.63;54.37;100910.28;5093975;28;20137;-35
2022/08/18 05:16:09;;;;;;;0.10;0.10;;;;;;;24.62;54.50;100905.84;5124905;28;20049;-34
2022/08/18 05:18:42;;;;;;;0.10;0.10;;;;;;;24.62;54.38;100914.22;5124062;28;20385;-35
2022/08/18 05:21:13;;;;;;;0.10;0.10;;;;;;;24.62;54.45;100920.59;5129738;28;20069;-34
2022/08/18 05:23:41;;;;;;;0.10;0.10;;;;;;;24.63;54.45;100915.84;5110235;28;20058;-35
2022/08/18 05:26:07;;;;;;;0.10;0.10;;;;;;;24.62;54.79;100917.81;5110503;28;20084;-35
2022/08/18 05:28:36;;;;;;;0.10;0.10;;;;;;;24.64;54.72;100917.47;5094214;28;20078;-34
2022/08/18 05:31:06;;;;;;;0.10;0.10;;;;;;;24.62;54.92;100923.38;5110106;28;20090;-34
2022/08/18 05:33:39;;;;;;;0.10;0.10;;;;;;;24.28;57.29;100923.94;5125942;28;20095;-39
2022/08/18 05:36:15;;;;;;;0.10;0.10;;;;;;;24.20;57.46;100925.50;5110400;28;20047;-38
2022/08/18 05:39:11;;;;;;;0.10;0.10;;;;;;;24.44;56.21;100925.22;5127450;28;20051;-37
2022/08/18 05:41:39;;;;;;;0.10;0.10;;;;;;;24.55;55.88;100931.34;5116519;28;20067;-38
2022/08/18 05:44:05;;;;;;;;;;;;;;;24.50;56.33;100937.06;5123329;28;20071;-40
2022/08/18 05:46:37;;;;;;;0.10;0.10;;;;;;;24.34;56.79;100925.44;5104949;28;20273;-42
2022/08/18 05:49:03;;;;;;;0.10;0.10;;;;;;;24.50;56.40;100925.91;5106667;28;20141;-38
2022/08/18 05:51:35;;;;;;;0.10;0.10;;;;;;;24.56;55.64;100932.16;5127656;28;20039;-37
2022/08/18 05:56:49;;;;;;;0.10;0.10;;;;;;;24.62;55.66;100942.06;5091741;28;20078;-38
2022/08/18 05:59:19;;;;;;;0.30;0.30;;;;;;;24.63;55.75;100944.50;5106001;28;20118;-38
2022/08/18 06:01:50;;;;;;;0.10;0.10;;;;;;;24.65;55.68;100946.97;5101786;28;20561;-38
2022/08/18 06:04:25;;;;;;;0.38;0.35;;;;;;;24.66;55.55;100948.63;5106614;28;20130;-37
2022/08/18 06:06:51;;;;;;;0.10;0.10;;;;;;;24.67;55.53;100947.50;5103456;28;20468;-37
2022/08/18 06:09:23;;;;;;;0.10;0.10;;;;;;;24.67;55.67;100956.66;5121262;28;20053;-38
2022/08/18 06:11:49;;;;;;;0.10;0.10;;;;;;;24.53;56.80;100955.91;5127694;28;20123;-39
2022/08/18 06:14:15;;;;;;;0.00;0.00;;;;;;;24.61;56.35;100957.09;5122738;28;20086;-38
2022/08/18 06:16:53;;;;;;;0.03;0.03;;;;;;;24.65;55.90;100953.34;5105789;28;20059;-38
2022/08/18 06:19:38;;;;;;;;;;;;;;;24.66;56.01;100960.59;5122675;28;20142;-39
2022/08/18 06:22:18;;;;;;;0.10;0.10;;;;;;;24.66;55.85;100962.56;5115865;27;19924;-40
2022/08/18 06:25:08;;;;;;;0.10;0.10;;;;;;;24.68;55.93;100968.63;5104580;28;20103;-37
2022/08/18 06:28:01;;;;;;;0.22;0.20;;;;;;;24.68;55.92;100972.22;5109434;28;20133;-38
2022/08/18 06:31:03;;;;;;;0.10;0.10;;;;;;;24.69;55.79;100973.84;5105031;28;20198;-37
2022/08/18 06:34:01;;;;;;;0.10;0.10;;;;;;;24.71;55.83;100968.81;5106684;28;20473;-38
2022/08/18 06:36:54;;;;;;;0.10;0.10;;;;;;;24.71;55.89;100968.00;5103438;28;20150;-37
2022/08/18 06:39:31;;;;;;;0.10;0.10;;;;;;;24.70;55.42;100971.94;5098953;28;20130;-37
2022/08/18 06:41:56;;;;;;;0.10;0.10;;;;;;;24.71;55.78;100976.34;5096133;28;20398;-38
2022/08/18 06:44:41;;;;;;;0.10;0.10;;;;;;;24.72;55.66;100980.78;5115260;28;20044;-38
2022/08/18 06:47:14;;;;;;;0.10;0.10;;;;;;;24.72;55.81;100975.19;5097488;28;20142;-37
2022/08/18 06:49:53;;;;;;;0.10;0.10;;;;;;;24.74;55.76;100981.25;5115016;27;20546;-37
2022/08/18 06:52:23;;;;;;;0.10;0.10;;;;;;;24.75;55.81;100988.50;5116007;28;20542;-37
2022/08/18 06:54:51;;;;;;;0.10;0.10;;;;;;;24.75;55.77;100983.75;5099781;28;20134;-37
2022/08/18 06:57:31;;;;;;;0.10;0.10;;;;;;;24.75;55.79;100989.31;5121479;28;20071;-37
2022/08/18 07:02:59;;;;;;;0.10;0.10;;;;;;;24.76;55.94;100990.13;5153831;27;20213;-34
2022/08/18 07:05:27;;;;;;;0.10;0.10;;;;;;;24.76;55.84;100996.53;5130820;27;20110;-34
2022/08/18 07:10:40;;;;;;;0.10;0.10;;;;;;;24.76;55.92;100981.78;5148703;27;21503;-35
2022/08/18 07:13:25;;;;;;;0.10;0.10;;;;;;;24.76;55.80;100985.38;5117427;27;20088;-34
2022/08/18 07:15:53;;;;;;;0.10;0.10;;;;;;;24.76;55.92;100981.78;5142720;27;20054;-35
2022/08/18 07:18:26;;;;;;;0.10;0.10;;;;;;;24.76;56.13;100987.34;5141156;27;20465;-35
2022/08/18 07:20:59;;;;;;;0.10;0.10;;;;;;;24.77;56.05;100998.16;5133805;27;20125;-35
2022/08/18 07:23:29;;;;;;;0.10;0.10;;;;;;;24.76;56.14;100990.13;5156031;27;20145;-34
2022/08/18 07:26:16;;;;;;;0.10;0.10;;;;;;;24.75;56.17;100988.50;5136682;27;20137;-34
2022/08/18 07:28:46;;;;;;;0.10;0.10;;;;;;;24.76;55.96;100987.34;5123692;27;20547;-35
2022/08/18 07:31:25;;;;;;;0.10;0.10;;;;;;;24.76;56.01;100990.13;5154779;27;20573;-34
2022/08/18 07:33:56;;;;;;;0.10;0.10;;;;;;;24.75;56.07;100988.50;5155576;27;21466;-35
2022/08/18 07:36:24;;;;;;;0.10;0.10;;;;;;;24.76;56.02;100985.38;5133896;27;20470;-35
2022/08/18 07:38:55;;;;;;;0.10;0.10;;;;;;;24.76;55.81;100982.59;5155523;27;20112;-34
2022/08/18 07:41:26;;;;;;;0.10;0.10;;;;;;;24.76;56.00;100979.00;5134352;27;20097;-35
2022/08/18 07:44:04;;;;;;;0.10;0.10;;;;;;;24.76;56.09;100987.34;5145822;27;20046;-34
2022/08/18 07:46:38;;;;;;;0.10;0.10;;;;;;;24.76;56.14;100981.78;5138190;27;20508;-36
2022/08/18 07:49:05;;;;;;;0.10;0.10;;;;;;;24.76;55.96;100967.84;5135692;27;20082;-36
2022/08/18 07:51:50;;;;;;;0.10;0.10;;;;;;;24.75;55.94;100969.81;5133798;27;20051;-36
2022/08/18 07:57:16;;;;;;;0.10;0.10;;;;;;;24.76;55.92;100965.06;5158304;27;20201;-35
2022/08/18 07:59:53;;;;;;;0.10;0.10;;;;;;;24.74;55.96;100964.56;5139319;27;20044;-35
2022/08/18 08:05:20;;;;;;;0.10;0.10;;;;;;;24.73;56.30;100974.88;5150941;27;20257;-38
2022/08/18 08:07:50;;;;;;;0.10;0.10;;;;;;;24.75;56.13;100983.75;5126491;27;20081;-37
2022/08/18 08:10:32;;;;;;;0.10;0.10;;;;;;;24.75;55.67;100982.94;5146589;27;20498;-37
2022/08/18 08:13:19;;;;;;;0.10;0.10;;;;;;;24.76;55.77;100977.03;5125426;27;20135;-38
2022/08/18 08:16:16;;;;;;;0.10;0.10;;;;;;;24.78;55.94;100976.69;5131437;27;20039;-39
2022/08/18 08:21:32;;;;;;;0.10;0.10;;;;;;;24.77;55.80;100989.00;5160478;27;20202;-37
2022/08/18 08:24:12;;;;;;;0.10;0.10;;;;;;;24.78;56.00;100994.25;5119791;27;20118;-37
2022/08/18 08:27:05;;;;;;;0.13;0.13;;;;;;;24.79;57.34;101006.22;5120874;27;20438;-40
2022/08/18 08:29:41;;;;;;;0.10;0.10;;;;;;;24.76;56.88;101002.09;5120490;27;20388;-37
2022/08/18 08:32:13;;;;;;;0.10;0.10;;;;;;;24.78;56.81;101004.56;5112179;27;20482;-36
2022/08/18 08:34:49;;;;;;;0.10;0.10;;;;;;;24.81;56.57;101005.91;5133836;27;20083;-39
2022/08/18 08:37:19;;;;;;;0.10;0.10;;;;;;;24.83;56.63;101014.75;5134693;27;20067;-37
2022/08/18 08:39:56;;;;;;;0.10;0.10;;;;;;;24.85;56.34;101009.69;5133233;27;20071;-37
2022/08/18 08:42:34;;;;;;;0.10;0.10;;;;;;;24.83;56.14;101007.22;5114845;27;20058;-37
2022/08/18 08:45:09;;;;;;;0.10;0.10;;;;;;;24.83;56.20;101011.97;5136105;27;20049;-37
2022/08/18 08:47:40;;;;;;;0.10;0.10;;;;;;;24.81;56.09;101020.63;5112629;27;20133;-37
2022/08/18 08:50:12;;;;;;;0.10;0.10;;;;;;;24.80;55.92;101013.44;5118945;27;20091;-37
2022/08/18 08:52:48;;;;;;;0.10;0.10;;;;;;;24.79;55.83;101020.16;5142253;27;20078;-37
2022/08/18 08:55:17;;;;;;;0.45;0.20;;;;;;;24.75;55.97;101019.94;5140928;27;20074;-37
2022/08/18 08:57:49;;;;;;;0.10;0.10;;;;;;;24.79;55.84;101017.38;5119634;27;20133;-37
2022/08/18 09:00:15;;;;;;;0.10;0.10;;;;;;;24.80;55.66;101010.66;5119593;27;20085;-37
2022/08/18 09:03:21;;;;;;;0.10;0.10;;;;;;;24.79;55.55;101011.78;5138004;27;20046;-37
2022/08/18 09:06:09;;;;;;;0.10;0.10;;;;;;;24.82;55.52;101004.75;5123360;27;20153;-37
2022/08/18 09:09:07;;;;;;;0.10;0.10;;;;;;;24.82;55.38;101011.13;5137435;27;20105;-37
2022/08/18 09:12:03;;;;;;;0.10;0.10;;;;;;;24.82;55.26;101005.56;5116964;27;20133;-40
2022/08/18 09:14:51;;;;;;;0.10;0.10;;;;;;;24.83;55.12;101000.81;5121013;27;20069;-37
2022/08/18 09:17:41;;;;;;;0.10;0.10;;;;;;;24.83;54.96;100998.88;5133502;27;20082;-37
2022/08/18 09:20:34;;;;;;;0.00;0.00;;;;;;;24.84;55.01;100999.69;5124965;27;20815;-38
2022/08/18 09:23:08;;;;;;;0.17;0.17;;;;;;;24.83;54.91;100996.09;5120780;27;20137;-37
2022/08/18 09:28:22;;;;;;;0.10;0.10;;;;;;;24.82;54.67;100993.59;5158222;27;20116;-35
2022/08/18 09:36:46;;;;;;;0.10;0.10;;;;;;;24.85;54.61;101002.16;5153988;27;21776;-35
2022/08/18 09:43:02;;;;;;;0.10;0.10;;;;;;;24.86;54.80;100995.44;5116017;27;20043;-34
2022/08/18 09:45:41;;;;;;;0.10;0.10;;;;;;;24.87;54.78;100994.31;5126641;27;20400;-35
2022/08/18 09:56:50;;;;;;;0.10;0.10;;;;;;;24.85;54.17;100993.78;5153908;27;20253;-35
2022/08/18 10:02:35;;;;;;;0.20;0.20;;;;;;;24.84;54.05;100997.72;5150600;27;20132;-35
2022/08/18 10:05:24;;;;;;;0.00;0.00;;;;;;;24.85;53.97;101009.69;5127765;27;20111;-38
2022/08/18 10:07:53;;;;;;;0.10;0.10;;;;;;;24.83;53.80;101007.22;5137526;27;20062;-37
2022/08/18 10:10:30;;;;;;;0.10;0.10;;;;;;;24.85;53.97;101015.25;5122107;27;20392;-36
2022/08/18 10:13:43;;;;;;;0.00;0.00;;;;;;;24.82;53.57;101013.91;5123072;27;20061;-36
2022/08/18 10:16:32;;;;;;;0.10;0.10;;;;;;;24.84;53.88;101010.84;5119401;27;20457;-36
2022/08/18 10:19:28;;;;;;;0.10;0.10;;;;;;;24.82;53.70;101000.00;5121116;27;20050;-37
2022/08/18 10:22:08;;;;;;;0.10;0.10;;;;;;;24.83;53.76;101000.81;5141309;27;20485;-37
2022/08/18 10:24:37;;;;;;;0.10;0.10;;;;;;;24.84;53.63;100996.91;5135228;27;20469;-37
2022/08/18 10:27:07;;;;;;;0.10;0.10;;;;;;;24.82;53.51;100994.44;5121966;27;20057;-37
2022/08/18 10:29:50;;;;;;;0.10;0.10;;;;;;;24.83;53.46;100990.53;5135744;27;20089;-37
2022/08/18 10:32:21;;;;;;;0.10;0.10;;;;;;;24.82;53.51;100996.38;5121509;27;20137;-37
2022/08/18 10:34:51;;;;;;;0.10;0.10;;;;;;;24.83;53.62;100995.25;5117599;27;20167;-36
2022/08/18 10:37:38;;;;;;;0.10;0.10;;;;;;;24.83;53.72;100989.66;5134958;27;20047;-37
2022/08/18 10:40:14;;;;;;;0.10;0.10;;;;;;;24.84;53.94;100989.38;5108215;27;20121;-38
2022/08/18 10:42:55;;;;;;;0.10;0.10;;;;;;;24.84;53.88;100996.91;5137557;27;20055;-37
2022/08/18 10:45:31;;;;;;;0.00;0.00;;;;;;;24.84;53.87;100997.72;5128586;27;20309;-37
2022/08/18 10:48:12;;;;;;;0.10;0.10;;;;;;;24.84;54.28;100985.78;5114081;27;20138;-37
2022/08/18 10:50:55;;;;;;;0.10;0.10;;;;;;;24.84;54.21;100985.78;5125751;27;20465;-36
2022/08/18 10:54:00;;;;;;;0.10;0.10;;;;;;;24.84;54.49;100983.81;5117637;27;20067;-36
2022/08/18 10:56:34;;;;;;;0.10;0.10;;;;;;;24.84;54.45;100989.38;5120381;27;20582;-39
2022/08/18 10:59:16;;;;;;;0.10;0.10;;;;;;;24.83;54.28;100976.59;5134106;27;20098;-37
2022/08/18 11:04:56;;;;;;;0.10;0.10;;;;;;;24.83;54.28;100979.38;5157086;27;20114;-36
2022/08/18 11:07:27;;;;;;;0.10;0.10;;;;;;;24.81;54.16;100975.25;5117142;27;20091;-36
2022/08/18 11:09:57;;;;;;;0.00;0.00;;;;;;;24.83;54.19;100975.75;5118574;27;20051;-36
2022/08/18 11:13:20;;;;;;;0.10;0.10;;;;;;;24.83;54.13;100965.47;5139366;27;20106;-35
2022/08/18 11:16:14;;;;;;;0.10;0.10;;;;;;;24.84;54.26;100960.69;5116686;27;20111;-35
2022/08/18 11:18:44;;;;;;;0.15;0.15;;;;;;;24.85;54.29;100956.78;5127791;27;20096;-35
2022/08/18 11:21:43;;;;;;;0.10;0.10;;;;;;;24.84;54.49;100960.69;5114999;27;20481;-36
2022/08/18 11:24:14;;;;;;;0.10;0.10;;;;;;;24.85;54.40;100960.38;5114706;27;20099;-35
2022/08/18 11:26:52;;;;;;;0.10;0.10;;;;;;;24.86;54.44;100961.19;5121388;27;20442;-37
2022/08/18 11:29:39;;;;;;;0.10;0.10;;;;;;;24.87;54.42;100960.88;5131195;27;20444;-37
2022/08/18 11:32:10;;;;;;;0.10;0.10;;;;;;;24.87;54.66;100960.88;5127449;27;20090;-38
2022/08/18 11:34:47;;;;;;;0.10;0.10;;;;;;;24.88;54.55;100953.34;5115666;27;20128;-38
2022/08/18 11:37:26;;;;;;;0.10;0.10;;;;;;;24.87;54.51;100948.91;5131083;27;20134;-37
2022/08/18 11:39:55;;;;;;;0.10;0.10;;;;;;;24.88;54.40;100945.81;5124664;27;20352;-37
2022/08/18 11:42:32;;;;;;;0.10;0.10;;;;;;;24.88;54.38;100936.63;5104137;27;20039;-36
2022/08/18 11:45:13;;;;;;;0.10;0.10;;;;;;;24.88;54.54;100940.25;5128541;27;20042;-39
2022/08/18 11:47:58;;;;;;;0.10;0.10;;;;;;;24.88;54.38;100940.25;5130449;27;20156;-41
2022/08/18 11:50:28;;;;;;;0.00;0.00;;;;;;;24.87;54.41;100938.59;5133056;27;20063;-37
2022/08/18 11:52:55;;;;;;;0.10;0.10;;;;;;;24.88;54.66;100940.25;5128546;27;20043;-38
2022/08/18 11:55:32;;;;;;;0.10;0.10;;;;;;;24.89;54.61;100941.06;5132124;27;20043;-38
2022/08/18 11:57:58;;;;;;;0.00;0.00;;;;;;;24.88;54.59;100942.22;5112495;27;20082;-36
2022/08/18 12:03:28;;;;;;;0.00;0.00;;;;;;;24.89;54.50;100935.50;5165491;27;20206;-35
2022/08/18 12:05:59;;;;;;;0.10;0.10;;;;;;;24.89;54.32;100936.31;5124533;27;20047;-34
2022/08/18 12:08:34;;;;;;;0.10;0.10;;;;;;;24.89;54.38;100930.75;5146685;27;20127;-34
2022/08/18 12:11:23;;;;;;;0.10;0.10;;;;;;;24.89;54.24;100925.16;5115127;27;20054;-37
2022/08/18 12:14:16;;;;;;;0.10;0.10;;;;;;;24.90;54.38;100928.78;5110211;27;20055;-37
2022/08/18 12:16:58;;;;;;;0.10;0.10;;;;;;;24.91;54.36;100925.66;5135658;27;20047;-38
2022/08/18 12:19:29;;;;;;;0.10;0.10;;;;;;;24.90;54.31;100928.78;5124308;27;20045;-38
2022/08/18 12:21:59;;;;;;;0.10;0.10;;;;;;;24.90;54.33;100935.16;5136213;27;20082;-37
2022/08/18 12:24:28;;;;;;;0.10;0.10;;;;;;;24.88;54.48;100936.63;5138456;27;20134;-39
2022/08/18 12:27:01;;;;;;;0.10;0.10;;;;;;;24.84;54.37;100949.56;5138636;27;20039;-37
2022/08/18 12:29:45;;;;;;;0.10;0.10;;;;;;;24.87;54.21;100946.97;5141576;27;20046;-39
2022/08/18 12:32:13;;;;;;;0.00;0.00;;;;;;;24.89;54.15;100964.16;5103997;27;20334;-37
2022/08/18 12:34:59;;;;;;;0.10;0.10;;;;;;;24.89;53.94;100964.16;5116274;27;20465;-38
2022/08/18 12:37:33;;;;;;;0.10;0.10;;;;;;;24.91;53.79;100973.00;5119888;27;20128;-37
2022/08/18 12:40:18;;;;;;;0.10;0.10;;;;;;;24.92;53.81;100990.56;5116239;27;20046;-38
2022/08/18 12:42:44;;;;;;;0.10;0.10;;;;;;;24.91;53.74;100997.25;5137071;27;20043;-37
2022/08/18 12:45:12;;;;;;;0.00;0.00;;;;;;;24.92;53.80;101001.72;5142410;27;20462;-38
2022/08/18 12:47:39;;;;;;;0.00;0.00;;;;;;;24.90;53.67;100998.41;5140412;27;20556;-39
2022/08/18 12:50:07;;;;;;;0.10;0.10;;;;;;;24.90;53.98;100990.88;5142596;27;20035;-37